Time;durP1;ratioP1;P1;durP2;ratioP2;P2;SDS_P1;SDS_P2;PMS_P1;PMS_P2;Temp;Humidity;BMP_temperature;BMP_pressure;BME280_temperature;BME280_humidity;BME280_pressure;Samples;Min_cycle;Max_cycle;Signal;HPM_P1;HPM_P2
2021/12/08 00:01:32;;;;;;;0.10;0.10;;;1.60;99.90;226.50;231333.00;;;;5018990;28;20288;-73
2021/12/08 00:04:00;;;;;;;0.10;0.10;;;1.60;99.90;226.50;231333.00;;;;5019003;28;20195;-72
2021/12/08 00:06:29;;;;;;;0.13;0.13;;;1.50;99.90;226.50;231333.00;;;;5019435;28;20249;-72
2021/12/08 00:09:16;;;;;;;0.10;0.10;;;1.60;99.90;226.50;231333.00;;;;5019475;28;20304;-72
2021/12/08 00:14:30;;;;;;;0.10;0.10;;;1.50;99.90;226.50;231333.00;;;;5019833;28;20194;-71
2021/12/08 00:16:58;;;;;;;0.15;0.15;;;1.50;99.90;226.50;231333.00;;;;5019122;28;20196;-71
2021/12/08 00:19:27;;;;;;;0.10;0.10;;;1.50;99.90;226.50;231333.00;;;;5017997;28;20218;-71
2021/12/08 00:21:55;;;;;;;0.10;0.10;;;1.50;99.90;226.50;231333.00;;;;5019001;28;20215;-71
2021/12/08 00:24:25;;;;;;;0.10;0.10;;;1.60;99.90;226.50;231333.00;;;;5018784;28;20664;-71
2021/12/08 00:26:54;;;;;;;0.10;0.10;;;1.50;99.90;226.50;231333.00;;;;5018338;28;20617;-71
2021/12/08 00:29:22;;;;;;;0.10;0.10;;;1.50;99.90;226.50;231333.00;;;;5006541;28;20574;-72
2021/12/08 00:31:50;;;;;;;0.10;0.10;;;1.50;99.90;226.50;231333.00;;;;5018585;28;20206;-72
2021/12/08 00:34:18;;;;;;;0.10;0.10;;;1.50;99.90;226.50;231333.00;;;;5018754;28;20254;-72
2021/12/08 00:36:50;;;;;;;0.10;0.10;;;1.40;99.90;226.50;231333.00;;;;5018281;28;21025;-72
2021/12/08 00:39:21;;;;;;;0.13;0.13;;;1.40;99.90;226.50;231333.00;;;;5019994;28;20560;-72
2021/12/08 00:41:50;;;;;;;0.10;0.10;;;1.40;99.90;226.50;231333.00;;;;5020430;28;20212;-72
2021/12/08 00:44:18;;;;;;;0.10;0.10;;;1.40;99.90;226.50;231333.00;;;;5019518;28;20724;-73
2021/12/08 00:46:46;;;;;;;0.10;0.10;;;1.40;99.90;226.50;231333.00;;;;5017753;28;20297;-72
2021/12/08 00:49:16;;;;;;;0.10;0.10;;;1.40;99.90;226.50;231333.00;;;;5018831;28;20199;-72
2021/12/08 00:51:44;;;;;;;0.10;0.10;;;1.40;99.90;226.50;231333.00;;;;5017314;28;20618;-73
2021/12/08 00:54:12;;;;;;;0.10;0.10;;;1.40;99.90;226.50;231333.00;;;;5019340;28;20738;-72
2021/12/08 00:56:41;;;;;;;0.10;0.10;;;1.50;99.90;226.50;231333.00;;;;5021759;28;20198;-73
2021/12/08 00:59:10;;;;;;;0.10;0.10;;;1.50;99.90;226.50;231333.00;;;;5022453;28;20265;-72
2021/12/08 01:01:38;;;;;;;0.10;0.10;;;1.50;99.90;226.50;231333.00;;;;5022963;28;20219;-73
2021/12/08 01:04:09;;;;;;;0.10;0.10;;;1.60;99.90;226.50;231333.00;;;;5022854;28;20232;-73
2021/12/08 01:06:37;;;;;;;0.10;0.10;;;1.60;99.90;226.50;231333.00;;;;5019518;28;20187;-73
2021/12/08 01:09:06;;;;;;;0.10;0.10;;;1.60;99.90;226.50;231333.00;;;;5021782;28;20199;-73
2021/12/08 01:11:34;;;;;;;0.10;0.10;;;1.70;99.90;226.50;231333.00;;;;5021714;28;20219;-73
2021/12/08 01:14:03;;;;;;;0.10;0.10;;;1.70;99.90;226.50;231333.00;;;;5020204;28;20614;-73
2021/12/08 01:16:33;;;;;;;0.10;0.10;;;1.70;99.90;226.50;231333.00;;;;5021592;28;20308;-73
2021/12/08 01:19:01;;;;;;;0.10;0.10;;;1.80;99.90;226.50;231333.00;;;;5021714;28;20212;-73
2021/12/08 01:21:29;;;;;;;0.10;0.10;;;1.80;99.90;226.50;231333.00;;;;5022330;28;20211;-73
2021/12/08 01:23:57;;;;;;;0.10;0.10;;;1.80;99.90;226.50;231333.00;;;;5021902;28;20208;-73
2021/12/08 01:26:26;;;;;;;0.13;0.13;;;1.80;99.90;226.50;231333.00;;;;5018027;28;20211;-73
2021/12/08 01:28:56;;;;;;;0.10;0.10;;;1.80;99.90;226.50;231333.00;;;;5019900;28;20266;-73
2021/12/08 01:31:25;;;;;;;0.10;0.10;;;1.70;99.90;226.50;231333.00;;;;5018501;28;20623;-73
2021/12/08 01:33:55;;;;;;;0.10;0.10;;;1.70;99.90;226.50;231333.00;;;;5020664;28;20207;-73
2021/12/08 01:36:23;;;;;;;0.10;0.10;;;1.70;99.90;226.50;231333.00;;;;5020267;28;20211;-73
2021/12/08 01:38:51;;;;;;;0.10;0.10;;;1.60;99.90;226.50;231333.00;;;;5019973;28;20718;-73
2021/12/08 01:41:21;;;;;;;0.10;0.10;;;1.60;99.90;226.50;231333.00;;;;5021293;28;20226;-73
2021/12/08 01:46:32;;;;;;;0.20;0.20;;;1.50;99.90;226.50;231333.00;;;;5020127;28;20547;-72
2021/12/08 01:49:04;;;;;;;0.10;0.10;;;1.50;99.90;226.50;231333.00;;;;5021665;28;20563;-72
2021/12/08 01:51:32;;;;;;;0.13;0.13;;;1.50;99.90;226.50;231333.00;;;;5020738;28;20219;-72
2021/12/08 01:54:02;;;;;;;0.10;0.10;;;1.60;99.90;226.50;231333.00;;;;5021731;28;20237;-73
2021/12/08 01:56:32;;;;;;;0.10;0.10;;;1.50;99.90;226.50;231333.00;;;;5028454;28;20254;-72
2021/12/08 01:59:03;;;;;;;0.20;0.20;;;1.50;99.90;226.50;231333.00;;;;5029525;28;20199;-73
2021/12/08 02:01:35;;;;;;;0.10;0.10;;;1.50;99.90;226.50;231333.00;;;;5031060;28;20231;-73
2021/12/08 02:04:06;;;;;;;0.10;0.10;;;1.50;99.90;226.50;231333.00;;;;5032367;28;20274;-73
2021/12/08 02:06:38;;;;;;;0.10;0.10;;;1.60;99.90;226.50;231333.00;;;;5031833;28;20214;-73
2021/12/08 02:09:12;;;;;;;0.10;0.10;;;1.50;99.90;226.50;231333.00;;;;5032201;28;20227;-75
2021/12/08 02:11:45;;;;;;;0.10;0.10;;;1.50;99.90;226.50;231333.00;;;;5024603;28;20234;-73
2021/12/08 02:14:13;;;;;;;0.10;0.10;;;1.50;99.90;226.50;231333.00;;;;5009571;28;20206;-73
2021/12/08 02:16:44;;;;;;;0.10;0.10;;;1.50;99.90;226.50;231333.00;;;;5021691;28;20567;-73
2021/12/08 02:19:14;;;;;;;0.10;0.10;;;1.50;99.90;226.50;231333.00;;;;5020133;28;20219;-73
2021/12/08 02:21:44;;;;;;;0.10;0.10;;;1.50;99.90;226.50;231333.00;;;;5020781;28;20222;-73
2021/12/08 02:24:15;;;;;;;0.10;0.10;;;1.50;99.90;226.50;231333.00;;;;5021147;28;20256;-72
2021/12/08 02:26:46;;;;;;;0.10;0.10;;;1.50;99.90;226.50;231333.00;;;;5020075;28;20198;-73
2021/12/08 02:29:21;;;;;;;0.10;0.10;;;1.60;99.90;226.50;231333.00;;;;5020258;28;20231;-73
2021/12/08 02:31:56;;;;;;;0.13;0.13;;;1.60;99.90;226.50;231333.00;;;;5020445;28;20214;-73
2021/12/08 02:48:22;;;;;;;0.17;0.17;;;1.50;99.90;226.50;231333.00;;;;4991273;28;20239;-72
2021/12/08 02:50:50;;;;;;;0.10;0.10;;;1.50;99.90;226.50;231333.00;;;;5022348;28;20582;-72
2021/12/08 02:53:20;;;;;;;0.10;0.10;;;1.50;99.90;226.50;231333.00;;;;5020290;28;20192;-72
2021/12/08 02:55:48;;;;;;;0.10;0.10;;;1.50;99.90;226.50;231333.00;;;;5024208;28;20199;-72
2021/12/08 02:58:18;;;;;;;0.10;0.10;;;1.50;99.90;226.50;231333.00;;;;5021813;28;20200;-72
2021/12/08 03:00:52;;;;;;;0.10;0.10;;;1.50;99.90;226.50;231333.00;;;;5020794;28;20286;-72
2021/12/08 03:03:20;;;;;;;0.10;0.10;;;1.50;99.90;226.50;231333.00;;;;5017484;28;20216;-72
2021/12/08 03:05:49;;;;;;;0.15;0.15;;;1.50;99.90;226.50;231333.00;;;;5020393;28;20203;-72
2021/12/08 03:08:17;;;;;;;0.13;0.13;;;1.50;99.90;226.50;231333.00;;;;5019496;28;20388;-72
2021/12/08 03:10:52;;;;;;;0.10;0.10;;;1.50;99.90;226.50;231333.00;;;;5018115;28;20225;-72
2021/12/08 03:13:30;;;;;;;0.10;0.10;;;1.50;99.90;226.50;231333.00;;;;5018169;28;20207;-73
2021/12/08 03:15:59;;;;;;;0.10;0.10;;;1.50;99.90;226.50;231333.00;;;;5018722;28;20196;-73
2021/12/08 03:18:33;;;;;;;0.10;0.10;;;1.50;99.90;226.50;231333.00;;;;5019341;28;20262;-73
2021/12/08 03:21:03;;;;;;;0.10;0.10;;;1.50;99.90;226.50;231333.00;;;;5020027;28;20840;-72
2021/12/08 03:23:37;;;;;;;0.10;0.10;;;1.50;99.90;226.50;231333.00;;;;5020397;28;20575;-72
2021/12/08 03:26:07;;;;;;;0.10;0.10;;;1.50;99.90;226.50;231333.00;;;;5019797;28;20199;-72
2021/12/08 03:28:41;;;;;;;0.10;0.10;;;1.50;99.90;226.50;231333.00;;;;5019052;28;20688;-74
2021/12/08 03:31:14;;;;;;;0.10;0.10;;;1.50;99.90;226.50;231333.00;;;;5019832;28;20260;-75
2021/12/08 03:33:43;;;;;;;0.10;0.10;;;1.50;99.90;226.50;231333.00;;;;5017536;28;20199;-75
2021/12/08 03:36:12;;;;;;;0.10;0.10;;;1.50;99.90;226.50;231333.00;;;;5020969;28;20265;-75
2021/12/08 03:38:44;;;;;;;0.10;0.10;;;1.50;99.90;226.50;231333.00;;;;5022982;28;20723;-75
2021/12/08 03:41:14;;;;;;;0.10;0.10;;;1.50;99.90;226.50;231333.00;;;;5020548;28;20276;-75
2021/12/08 03:43:42;;;;;;;0.10;0.10;;;1.60;99.90;226.50;231333.00;;;;5020523;28;20289;-75
2021/12/08 03:46:13;;;;;;;0.10;0.10;;;1.60;99.90;226.50;231333.00;;;;5018598;28;20233;-75
2021/12/08 03:48:47;;;;;;;0.10;0.10;;;1.60;99.90;226.50;231333.00;;;;5018273;28;20286;-75
2021/12/08 03:51:17;;;;;;;0.10;0.10;;;1.60;99.90;226.50;231333.00;;;;5019027;28;20210;-75
2021/12/08 03:53:46;;;;;;;0.10;0.10;;;1.70;99.90;226.50;231333.00;;;;5018905;28;20207;-74
2021/12/08 03:56:15;;;;;;;0.10;0.10;;;1.70;99.90;226.50;231333.00;;;;5018537;28;20206;-75
2021/12/08 03:58:43;;;;;;;0.10;0.10;;;1.70;99.90;226.50;231333.00;;;;5019329;28;20199;-75
2021/12/08 04:01:11;;;;;;;0.10;0.10;;;1.70;99.90;226.50;231333.00;;;;5017585;28;20288;-75
2021/12/08 04:03:40;;;;;;;0.10;0.10;;;1.70;99.90;226.50;231333.00;;;;5019093;28;20203;-75
2021/12/08 04:06:28;;;;;;;0.10;0.10;;;1.60;99.90;226.50;231333.00;;;;5019075;28;20187;-75
2021/12/08 04:08:57;;;;;;;0.10;0.10;;;1.70;99.90;226.50;231333.00;;;;5019614;28;20226;-75
2021/12/08 04:11:27;;;;;;;0.10;0.10;;;1.60;99.90;226.50;231333.00;;;;5019714;28;20212;-75
2021/12/08 04:13:59;;;;;;;0.10;0.10;;;1.70;99.90;226.50;231333.00;;;;5019659;28;20195;-73
2021/12/08 04:16:33;;;;;;;0.10;0.10;;;1.70;99.90;226.50;231333.00;;;;5018515;28;20195;-73
2021/12/08 04:19:04;;;;;;;0.10;0.10;;;1.60;99.90;226.50;231333.00;;;;5017900;28;20214;-72
2021/12/08 04:21:33;;;;;;;0.10;0.10;;;1.70;99.90;226.50;231333.00;;;;5018674;28;20581;-72
2021/12/08 04:24:01;;;;;;;0.10;0.10;;;1.70;99.90;226.50;231333.00;;;;5017647;28;20236;-73
2021/12/08 04:26:37;;;;;;;0.10;0.10;;;1.70;99.90;226.50;231333.00;;;;5018903;28;20203;-72
2021/12/08 04:29:08;;;;;;;0.10;0.10;;;1.70;99.90;226.50;231333.00;;;;5021391;28;20226;-72
2021/12/08 04:31:39;;;;;;;0.10;0.10;;;1.70;99.90;226.50;231333.00;;;;5020539;28;20215;-72
2021/12/08 04:34:15;;;;;;;0.10;0.10;;;1.70;99.90;226.50;231333.00;;;;5022987;28;20549;-74
2021/12/08 04:36:49;;;;;;;0.10;0.10;;;1.80;99.90;226.50;231333.00;;;;5021452;28;20252;-73
2021/12/08 04:39:25;;;;;;;0.10;0.10;;;1.80;99.90;226.50;231333.00;;;;5023266;28;20222;-73
2021/12/08 04:42:00;;;;;;;0.10;0.10;;;1.80;99.90;226.50;231333.00;;;;5024298;28;20215;-73
2021/12/08 04:44:36;;;;;;;0.10;0.10;;;1.80;99.90;226.50;231333.00;;;;5022899;28;20608;-73
2021/12/08 04:47:26;;;;;;;0.10;0.10;;;1.90;99.90;226.50;231333.00;;;;5022251;28;20194;-73
2021/12/08 04:50:27;;;;;;;0.10;0.10;;;1.90;99.90;226.50;231333.00;;;;5021730;28;20249;-73
2021/12/08 04:53:23;;;;;;;0.10;0.10;;;1.90;99.90;226.50;231333.00;;;;5022532;28;20278;-73
2021/12/08 05:01:44;;;;;;;0.10;0.10;;;1.90;99.90;226.50;231333.00;;;;5006223;28;20256;-74
2021/12/08 05:07:14;;;;;;;0.10;0.10;;;1.90;99.90;226.50;231333.00;;;;5021337;28;20211;-74
2021/12/08 05:09:47;;;;;;;0.10;0.10;;;1.90;99.90;226.50;231333.00;;;;5021184;28;20222;-74
2021/12/08 05:12:19;;;;;;;0.10;0.10;;;1.90;99.90;226.50;231333.00;;;;5021080;28;20349;-74
2021/12/08 05:14:55;;;;;;;0.10;0.10;;;1.80;99.90;226.50;231333.00;;;;5021752;28;20238;-74
2021/12/08 05:17:33;;;;;;;0.10;0.10;;;1.80;99.90;226.50;231333.00;;;;5020197;28;20210;-74
2021/12/08 05:20:10;;;;;;;0.10;0.10;;;1.80;99.90;226.50;231333.00;;;;5023285;28;20256;-74
2021/12/08 05:22:45;;;;;;;0.10;0.10;;;1.90;99.90;226.50;231333.00;;;;5022126;28;20277;-74
2021/12/08 05:25:19;;;;;;;0.10;0.10;;;1.90;99.90;226.50;231333.00;;;;5022905;28;20191;-73
2021/12/08 05:27:53;;;;;;;0.10;0.10;;;1.90;99.90;226.50;231333.00;;;;5021228;28;20726;-73
2021/12/08 05:30:27;;;;;;;0.10;0.10;;;1.90;99.90;226.50;231333.00;;;;5020835;28;20215;-74
2021/12/08 05:32:57;;;;;;;0.10;0.10;;;1.90;99.90;226.50;231333.00;;;;5020861;28;20198;-74
2021/12/08 05:35:27;;;;;;;0.10;0.10;;;1.90;99.90;226.50;231333.00;;;;5018199;28;20225;-73
2021/12/08 05:37:56;;;;;;;0.10;0.10;;;1.90;99.90;226.50;231333.00;;;;5020037;28;20194;-73
2021/12/08 05:40:32;;;;;;;0.10;0.10;;;1.90;99.90;226.50;231333.00;;;;5017842;28;20203;-73
2021/12/08 05:43:01;;;;;;;0.10;0.10;;;1.90;99.90;226.50;231333.00;;;;5020249;28;20252;-73
2021/12/08 05:45:30;;;;;;;0.10;0.10;;;1.90;99.90;226.50;231333.00;;;;5020164;28;20199;-73
2021/12/08 05:47:58;;;;;;;0.10;0.10;;;1.90;99.90;226.50;231333.00;;;;5021698;28;20200;-73
2021/12/08 05:50:37;;;;;;;0.10;0.10;;;1.90;99.90;226.50;231333.00;;;;5020632;28;20288;-73
2021/12/08 05:53:05;;;;;;;0.10;0.10;;;1.80;99.90;226.50;231333.00;;;;5020219;28;20199;-73
2021/12/08 05:55:35;;;;;;;0.10;0.10;;;1.80;99.90;226.50;231333.00;;;;5020766;28;20438;-73
2021/12/08 05:58:07;;;;;;;0.10;0.10;;;1.80;99.90;226.50;231333.00;;;;5018734;28;20210;-74
2021/12/08 06:00:44;;;;;;;0.10;0.10;;;1.90;99.90;226.50;231333.00;;;;5021212;28;20244;-74
2021/12/08 06:03:12;;;;;;;0.10;0.10;;;1.90;99.90;226.50;231333.00;;;;5022622;28;20540;-73
2021/12/08 06:05:44;;;;;;;0.15;0.15;;;1.90;99.90;226.50;231333.00;;;;5021469;28;20271;-74
2021/12/08 06:08:12;;;;;;;0.20;0.20;;;1.90;99.90;226.50;231333.00;;;;5015942;28;20199;-74
2021/12/08 06:10:41;;;;;;;0.10;0.10;;;1.90;99.90;226.50;231333.00;;;;5019215;28;20229;-74
2021/12/08 06:13:15;;;;;;;0.10;0.10;;;1.90;99.90;226.50;231333.00;;;;5017158;28;20207;-74
2021/12/08 06:15:48;;;;;;;0.10;0.10;;;1.90;99.90;226.50;231333.00;;;;5017899;28;20188;-74
2021/12/08 06:18:23;;;;;;;0.10;0.10;;;1.90;99.90;226.50;231333.00;;;;5019427;28;20202;-75
2021/12/08 06:20:55;;;;;;;0.10;0.10;;;1.90;99.90;226.50;231333.00;;;;5019869;28;20219;-75
2021/12/08 06:23:23;;;;;;;0.10;0.10;;;1.90;99.90;226.50;231333.00;;;;5021442;28;20241;-75
2021/12/08 06:25:51;;;;;;;0.10;0.10;;;1.90;99.90;226.50;231333.00;;;;5022720;28;20199;-75
2021/12/08 06:28:19;;;;;;;0.10;0.10;;;1.90;99.90;226.50;231333.00;;;;5022848;28;20200;-74
2021/12/08 06:30:49;;;;;;;0.20;0.20;;;1.90;99.90;226.50;231333.00;;;;5020821;28;20626;-75
2021/12/08 06:33:20;;;;;;;0.10;0.10;;;1.90;99.90;226.50;231333.00;;;;5024152;28;20200;-74
2021/12/08 06:35:58;;;;;;;0.10;0.10;;;1.90;99.90;226.50;231333.00;;;;5028112;28;20195;-74
2021/12/08 06:38:28;;;;;;;0.10;0.10;;;1.90;99.90;226.50;231333.00;;;;5011148;28;20203;-74
2021/12/08 06:41:03;;;;;;;0.10;0.10;;;1.90;99.90;226.50;159214.00;;;;5022862;28;20220;-75
2021/12/08 06:43:38;;;;;;;0.10;0.10;;;2.00;99.90;226.50;231333.00;;;;5026042;28;20253;-74
2021/12/08 06:46:09;;;;;;;0.10;0.10;;;1.90;99.90;226.50;231333.00;;;;5025988;28;20237;-74
2021/12/08 06:48:43;;;;;;;0.10;0.10;;;1.90;99.90;226.50;231333.00;;;;5021309;28;20203;-74
2021/12/08 06:51:18;;;;;;;0.10;0.10;;;1.90;99.90;226.50;231333.00;;;;5019082;28;20210;-74
2021/12/08 06:53:52;;;;;;;0.10;0.10;;;2.00;99.90;226.50;231333.00;;;;5019544;28;20192;-74
2021/12/08 06:56:27;;;;;;;0.20;0.20;;;2.00;99.90;226.50;231333.00;;;;5020425;28;20213;-74
2021/12/08 06:59:01;;;;;;;0.10;0.10;;;2.00;99.90;226.50;231333.00;;;;5020581;28;20253;-74
2021/12/08 07:01:43;;;;;;;0.10;0.10;;;1.90;99.90;226.50;231333.00;;;;5016970;28;20281;-74
2021/12/08 07:04:28;;;;;;;0.10;0.10;;;1.90;99.90;226.50;231333.00;;;;5011426;28;20542;-74
2021/12/08 07:07:03;;;;;;;0.10;0.10;;;1.90;99.90;226.50;231333.00;;;;5007926;28;20199;-73
2021/12/08 07:09:39;;;;;;;0.10;0.10;;;1.90;99.90;226.50;231333.00;;;;5008926;28;20201;-74
2021/12/08 07:12:15;;;;;;;0.10;0.10;;;1.90;99.90;226.50;231333.00;;;;5011226;28;20248;-74
2021/12/08 07:14:49;;;;;;;0.10;0.10;;;1.90;99.90;226.50;231333.00;;;;5012095;28;20207;-74
2021/12/08 07:17:31;;;;;;;0.10;0.10;;;2.00;99.90;226.50;231333.00;;;;5005299;28;20246;-74
2021/12/08 07:20:14;;;;;;;0.10;0.10;;;1.90;99.90;226.50;231333.00;;;;5011742;28;20606;-74
2021/12/08 07:22:47;;;;;;;0.10;0.10;;;1.90;99.90;226.50;231333.00;;;;5011344;28;20298;-74
2021/12/08 07:25:19;;;;;;;0.10;0.10;;;1.90;99.90;226.50;231333.00;;;;5008371;28;20227;-74
2021/12/08 07:27:48;;;;;;;0.10;0.10;;;1.90;99.90;226.50;231333.00;;;;5010533;28;20196;-72
2021/12/08 07:30:21;;;;;;;0.10;0.10;;;1.90;99.90;226.50;231333.00;;;;5008025;28;20247;-74
2021/12/08 07:32:51;;;;;;;0.10;0.10;;;1.90;99.90;226.50;231333.00;;;;5010065;28;20246;-73
2021/12/08 07:35:26;;;;;;;0.10;0.10;;;1.90;99.90;226.50;231333.00;;;;5011516;28;20196;-73
2021/12/08 07:37:54;;;;;;;0.10;0.10;;;1.90;99.90;226.50;231333.00;;;;5010598;28;20188;-73
2021/12/08 07:40:29;;;;;;;0.10;0.10;;;1.90;99.90;226.50;231333.00;;;;5009532;28;20203;-72
2021/12/08 07:43:01;;;;;;;0.10;0.10;;;1.90;99.90;226.50;231333.00;;;;5009476;28;20198;-73
2021/12/08 07:45:36;;;;;;;0.10;0.10;;;1.90;99.90;226.50;231333.00;;;;5009058;28;20200;-72
2021/12/08 07:48:10;;;;;;;0.10;0.10;;;1.90;99.90;226.50;231333.00;;;;5017191;28;20221;-75
2021/12/08 07:50:45;;;;;;;0.10;0.10;;;1.90;99.90;226.50;231333.00;;;;5018838;28;20273;-73
2021/12/08 07:53:20;;;;;;;0.10;0.10;;;1.90;99.90;226.50;231333.00;;;;5015700;28;20613;-73
2021/12/08 07:55:54;;;;;;;0.10;0.10;;;1.90;99.90;226.50;231333.00;;;;5017034;28;20217;-74
2021/12/08 07:58:23;;;;;;;0.10;0.10;;;1.90;99.90;226.50;231333.00;;;;5018020;28;20206;-73
2021/12/08 08:00:57;;;;;;;0.10;0.10;;;1.90;99.90;226.50;231333.00;;;;5016696;28;20235;-74
2021/12/08 08:03:31;;;;;;;0.10;0.10;;;1.90;99.90;226.50;231333.00;;;;5018017;28;20630;-73
2021/12/08 08:06:05;;;;;;;0.10;0.10;;;1.90;99.90;226.50;231333.00;;;;5016683;28;20198;-73
2021/12/08 08:08:35;;;;;;;0.20;0.20;;;2.00;99.90;226.50;231333.00;;;;5014582;28;20200;-72
2021/12/08 08:11:09;;;;;;;0.10;0.10;;;2.00;99.90;226.50;231333.00;;;;5017025;28;20227;-72
2021/12/08 08:13:38;;;;;;;0.10;0.10;;;2.00;99.90;226.50;231333.00;;;;5018537;28;20555;-73
2021/12/08 08:16:13;;;;;;;0.20;0.20;;;2.00;99.90;226.50;231333.00;;;;5016153;28;20208;-73
2021/12/08 08:18:51;;;;;;;0.10;0.10;;;2.00;99.90;226.50;231333.00;;;;5015149;28;20215;-73
2021/12/08 08:21:26;;;;;;;0.10;0.10;;;2.00;99.90;226.50;231333.00;;;;5016110;28;20219;-72
2021/12/08 08:23:57;;;;;;;0.17;0.17;;;2.00;99.90;226.50;231333.00;;;;5014742;28;20261;-73
2021/12/08 08:26:26;;;;;;;0.10;0.10;;;2.00;99.90;226.50;231333.00;;;;5016419;28;20250;-73
2021/12/08 08:28:54;;;;;;;0.10;0.10;;;2.00;99.90;226.50;231333.00;;;;5017640;28;20654;-72
2021/12/08 08:31:30;;;;;;;0.10;0.10;;;2.00;99.90;226.50;231333.00;;;;5016438;28;20223;-72
2021/12/08 08:34:01;;;;;;;0.10;0.10;;;2.00;99.90;226.50;231333.00;;;;5016825;28;20198;-72
2021/12/08 08:36:35;;;;;;;0.10;0.10;;;2.00;99.90;226.50;231333.00;;;;5018537;28;20246;-72
2021/12/08 08:39:11;;;;;;;0.10;0.10;;;2.00;99.90;226.50;231333.00;;;;5012870;28;20207;-73
2021/12/08 08:41:45;;;;;;;0.10;0.10;;;2.00;99.90;226.50;231333.00;;;;5018427;28;20237;-73
2021/12/08 08:44:20;;;;;;;0.10;0.10;;;2.00;99.90;226.50;231333.00;;;;5016068;28;20249;-73
2021/12/08 08:46:55;;;;;;;0.10;0.10;;;2.10;99.90;226.50;231333.00;;;;5017727;28;20194;-71
2021/12/08 08:49:32;;;;;;;0.10;0.10;;;2.00;99.90;226.50;231333.00;;;;5018443;28;20207;-74
2021/12/08 08:52:08;;;;;;;0.10;0.10;;;2.10;99.90;226.50;231333.00;;;;5016290;28;20226;-74
2021/12/08 08:54:41;;;;;;;0.10;0.10;;;2.10;99.90;226.50;231333.00;;;;5013216;28;20230;-74
2021/12/08 08:57:15;;;;;;;0.10;0.10;;;2.10;99.90;226.50;231333.00;;;;5016370;28;20207;-74
2021/12/08 08:59:49;;;;;;;0.10;0.10;;;2.10;99.90;226.50;231333.00;;;;5017558;28;20246;-74
2021/12/08 09:02:22;;;;;;;0.10;0.10;;;2.10;99.90;226.50;231333.00;;;;5017044;28;20231;-74
2021/12/08 09:04:56;;;;;;;0.20;0.20;;;2.10;99.90;226.50;231333.00;;;;5017439;28;20483;-74
2021/12/08 09:07:34;;;;;;;0.20;0.20;;;2.10;99.90;226.50;231333.00;;;;5015182;28;20199;-74
2021/12/08 09:10:10;;;;;;;0.17;0.17;;;2.00;99.90;226.50;231333.00;;;;5011675;28;20253;-73
2021/12/08 09:12:48;;;;;;;0.10;0.10;;;2.00;99.90;226.50;231333.00;;;;5016720;28;20227;-76
2021/12/08 09:15:27;;;;;;;0.10;0.10;;;2.00;99.90;226.50;231333.00;;;;5019752;28;20544;-73
2021/12/08 09:18:00;;;;;;;0.10;0.10;;;2.00;99.90;226.50;231333.00;;;;5020924;28;20194;-76
2021/12/08 09:20:42;;;;;;;0.10;0.10;;;2.00;99.90;226.50;231333.00;;;;5021027;28;20555;-76
2021/12/08 09:23:20;;;;;;;0.10;0.10;;;2.00;99.90;226.50;231333.00;;;;5019125;28;20615;-74
2021/12/08 09:25:53;;;;;;;0.10;0.10;;;2.00;99.90;226.50;231333.00;;;;5019193;28;20268;-74
2021/12/08 09:28:29;;;;;;;0.20;0.20;;;2.00;99.90;226.50;231333.00;;;;5018824;28;20200;-74
2021/12/08 09:31:06;;;;;;;0.20;0.20;;;2.10;99.90;226.50;231333.00;;;;5021229;28;20225;-76
2021/12/08 09:33:44;;;;;;;0.10;0.10;;;2.10;99.90;226.50;231333.00;;;;5022754;28;20227;-74
2021/12/08 09:36:21;;;;;;;0.10;0.10;;;2.10;99.90;226.50;231333.00;;;;5020546;28;20556;-75
2021/12/08 09:38:54;;;;;;;0.10;0.10;;;2.10;99.90;226.50;231333.00;;;;5017914;28;20223;-74
2021/12/08 09:41:36;;;;;;;0.10;0.10;;;2.10;99.90;226.50;231333.00;;;;5020046;28;20222;-75
2021/12/08 09:44:11;;;;;;;0.10;0.10;;;2.10;99.90;226.50;231333.00;;;;5019696;28;20237;-76
2021/12/08 09:46:45;;;;;;;0.10;0.10;;;2.20;99.90;226.50;231333.00;;;;5020372;28;20207;-74
2021/12/08 09:49:17;;;;;;;0.20;0.20;;;2.20;99.90;226.50;231333.00;;;;5018311;28;20660;-76
2021/12/08 09:51:47;;;;;;;0.10;0.10;;;2.20;99.90;226.50;231333.00;;;;5018496;28;20594;-75
2021/12/08 09:54:16;;;;;;;0.10;0.10;;;2.20;99.90;226.50;231333.00;;;;5016199;28;20567;-74
2021/12/08 09:56:48;;;;;;;0.10;0.10;;;2.30;99.90;226.50;231333.00;;;;5019953;28;20196;-74
2021/12/08 09:59:18;;;;;;;0.10;0.10;;;2.20;99.90;226.50;231333.00;;;;5017957;28;20203;-74
2021/12/08 10:01:48;;;;;;;0.10;0.10;;;2.20;99.90;226.50;231333.00;;;;5016251;28;20223;-72
2021/12/08 10:04:16;;;;;;;0.10;0.10;;;2.20;99.90;226.50;231333.00;;;;5020354;28;20439;-73
2021/12/08 10:06:49;;;;;;;0.13;0.13;;;2.30;99.90;226.50;231333.00;;;;5017942;28;20214;-74
2021/12/08 10:09:20;;;;;;;0.10;0.10;;;2.20;99.90;226.50;231333.00;;;;5017690;28;20203;-76
2021/12/08 10:11:48;;;;;;;0.10;0.10;;;2.30;99.90;226.50;231333.00;;;;5019714;28;20219;-74
2021/12/08 10:14:17;;;;;;;0.10;0.10;;;2.20;99.90;226.50;231333.00;;;;5020183;28;20265;-74
2021/12/08 10:16:46;;;;;;;0.10;0.10;;;2.10;99.90;226.50;231333.00;;;;5020370;28;20666;-74
2021/12/08 10:19:17;;;;;;;0.10;0.10;;;2.10;99.90;226.50;231333.00;;;;5018999;28;21132;-73
2021/12/08 10:21:48;;;;;;;0.10;0.10;;;2.10;99.90;226.50;231333.00;;;;5019664;28;20223;-74
2021/12/08 10:24:20;;;;;;;0.10;0.10;;;2.10;99.90;226.50;231333.00;;;;5016223;28;20195;-74
2021/12/08 10:26:51;;;;;;;0.10;0.10;;;2.10;99.90;226.50;231333.00;;;;5016532;28;20206;-76
2021/12/08 10:29:25;;;;;;;0.10;0.10;;;2.10;99.90;226.50;231333.00;;;;5017471;28;20676;-75
2021/12/08 10:31:55;;;;;;;0.10;0.10;;;2.10;99.90;226.50;231333.00;;;;5019055;28;20569;-76
2021/12/08 10:34:30;;;;;;;0.10;0.10;;;2.00;99.90;226.50;231333.00;;;;5019890;28;20260;-76
2021/12/08 10:37:05;;;;;;;0.10;0.10;;;2.00;99.90;226.50;231333.00;;;;5019451;28;20253;-75
2021/12/08 10:39:37;;;;;;;0.20;0.20;;;2.00;99.90;226.50;231333.00;;;;5017101;28;20198;-73
2021/12/08 10:42:12;;;;;;;0.10;0.10;;;2.10;99.90;226.50;231333.00;;;;5020572;28;20424;-74
2021/12/08 10:44:51;;;;;;;0.10;0.10;;;2.00;99.90;226.50;231333.00;;;;5029280;28;20214;-75
2021/12/08 10:47:29;;;;;;;0.10;0.10;;;2.00;99.90;226.50;231333.00;;;;5032715;28;20203;-74
2021/12/08 10:55:41;;;;;;;0.10;0.10;;;2.00;99.90;226.50;231333.00;;;;5018034;28;20203;-75
2021/12/08 10:58:23;;;;;;;0.10;0.10;;;2.00;99.90;226.50;231333.00;;;;5022748;28;20191;-75
2021/12/08 11:00:53;;;;;;;0.10;0.10;;;2.00;99.90;226.50;231333.00;;;;5024384;28;20235;-74
2021/12/08 11:03:22;;;;;;;0.10;0.10;;;2.00;99.90;226.50;231333.00;;;;5026958;28;20203;-75
2021/12/08 11:05:54;;;;;;;0.20;0.20;;;2.00;99.90;226.50;231333.00;;;;5028534;28;20191;-74
2021/12/08 11:08:32;;;;;;;0.10;0.10;;;2.00;99.90;226.50;231333.00;;;;5024640;28;20201;-74
2021/12/08 11:11:05;;;;;;;0.10;0.10;;;2.00;99.90;226.50;231333.00;;;;5029170;28;20229;-74
2021/12/08 11:13:39;;;;;;;0.10;0.10;;;2.00;99.90;226.50;231333.00;;;;5028518;28;20220;-74
2021/12/08 11:16:14;;;;;;;0.10;0.10;;;2.10;99.90;226.50;231333.00;;;;5027753;28;20202;-74
2021/12/08 11:18:45;;;;;;;0.10;0.10;;;2.10;99.90;226.50;231333.00;;;;5029000;28;20316;-74
2021/12/08 11:21:20;;;;;;;0.10;0.10;;;2.10;99.90;226.50;231333.00;;;;5024963;28;20241;-75
2021/12/08 11:24:15;;;;;;;0.20;0.20;;;2.10;99.90;226.50;231333.00;;;;5025060;28;20203;-74
2021/12/08 11:26:47;;;;;;;0.10;0.10;;;2.20;99.90;226.50;231333.00;;;;5024902;28;20207;-75
2021/12/08 11:29:20;;;;;;;0.10;0.10;;;2.20;99.90;226.50;231333.00;;;;5009279;28;20286;-75
2021/12/08 11:31:53;;;;;;;0.10;0.10;;;2.10;99.90;226.50;231333.00;;;;5025739;28;20233;-74
2021/12/08 11:34:25;;;;;;;0.20;0.20;;;2.10;99.90;226.50;231333.00;;;;5022231;28;20656;-75
2021/12/08 11:36:58;;;;;;;0.10;0.10;;;2.20;99.90;226.50;231333.00;;;;5022231;28;20192;-74
2021/12/08 11:39:31;;;;;;;0.10;0.10;;;2.20;99.90;226.50;231333.00;;;;5023658;28;20223;-74
2021/12/08 11:42:06;;;;;;;0.10;0.10;;;2.20;99.90;226.50;231333.00;;;;5021953;28;20234;-74
2021/12/08 11:44:39;;;;;;;0.10;0.10;;;2.20;99.90;226.50;231333.00;;;;5023548;28;20226;-73